Time;durP1;ratioP1;P1;durP2;ratioP2;P2;SDS_P1;SDS_P2;PMS_P1;PMS_P2;Temp;Humidity;BMP_temperature;BMP_pressure;BME280_temperature;BME280_humidity;BME280_pressure;Samples;Min_cycle;Max_cycle;Signal;HPM_P1;HPM_P2
2023/08/29 00:00:48;;;;;;;34.35;32.05;;;12.10;99.90;;;;;;6239947;23;20005;-78
2023/08/29 00:03:14;;;;;;;42.05;39.40;;;12.00;99.90;;;;;;6239118;23;20048;-78
2023/08/29 00:05:39;;;;;;;40.20;37.60;;;12.00;99.90;;;;;;6239387;23;20079;-78
2023/08/29 00:08:05;;;;;;;39.92;37.15;;;12.00;99.90;;;;;;6241288;23;20010;-78
2023/08/29 00:10:31;;;;;;;39.53;36.65;;;12.00;99.90;;;;;;6239421;23;20357;-78
2023/08/29 00:12:57;;;;;;;39.90;37.55;;;11.90;99.90;;;;;;6213929;23;20012;-78
2023/08/29 00:15:23;;;;;;;39.97;37.13;;;12.10;99.90;;;;;;6214229;23;20374;-78
2023/08/29 00:17:48;;;;;;;43.53;40.90;;;11.90;99.90;;;;;;6238632;23;20008;-78
2023/08/29 00:20:14;;;;;;;37.15;34.25;;;11.80;99.90;;;;;;6239481;23;20036;-78
2023/08/29 00:22:39;;;;;;;39.88;37.30;;;11.80;99.90;;;;;;6239441;23;20019;-79
2023/08/29 00:25:05;;;;;;;40.00;37.60;;;11.80;99.90;;;;;;6238828;23;20014;-78
2023/08/29 00:27:31;;;;;;;38.85;36.28;;;11.80;99.90;;;;;;6239426;23;20308;-78
2023/08/29 00:29:57;;;;;;;44.28;41.38;;;11.70;99.90;;;;;;6239376;23;20073;-79
2023/08/29 00:32:22;;;;;;;39.78;37.20;;;11.70;99.90;;;;;;6238770;23;20455;-78
2023/08/29 00:34:48;;;;;;;41.15;38.63;;;11.70;99.90;;;;;;6241105;23;20430;-78
2023/08/29 00:37:14;;;;;;;44.67;41.97;;;11.60;99.90;;;;;;6239372;23;20092;-78
2023/08/29 00:39:39;;;;;;;36.50;34.17;;;11.60;99.90;;;;;;6241131;22;20230;-78
2023/08/29 00:42:05;;;;;;;44.25;41.55;;;11.60;99.90;;;;;;6238889;23;20019;-78
2023/08/29 00:44:30;;;;;;;34.95;32.97;;;11.60;99.90;;;;;;6239151;23;20039;-78
2023/08/29 00:46:57;;;;;;;42.55;40.03;;;11.50;99.90;;;;;;6238749;23;20056;-78
2023/08/29 00:49:26;;;;;;;41.53;38.70;;;11.50;99.90;;;;;;6238981;23;20008;-78
2023/08/29 00:51:52;;;;;;;41.55;39.00;;;11.50;99.90;;;;;;6240811;22;20447;-78
2023/08/29 00:54:20;;;;;;;42.33;39.53;;;11.40;99.90;;;;;;6238881;23;20335;-78
2023/08/29 00:56:47;;;;;;;41.55;39.00;;;11.40;99.90;;;;;;6213649;23;20047;-79
2023/08/29 00:59:13;;;;;;;41.88;39.13;;;11.40;99.90;;;;;;6213954;23;20347;-78
2023/08/29 01:01:39;;;;;;;38.60;36.00;;;11.40;99.90;;;;;;6238550;23;20019;-78
2023/08/29 01:04:05;;;;;;;42.33;39.42;;;11.30;99.90;;;;;;6238949;23;20012;-78
2023/08/29 01:06:31;;;;;;;43.00;40.17;;;11.30;99.90;;;;;;6240765;23;20030;-78
2023/08/29 01:08:58;;;;;;;43.20;40.40;;;11.30;99.90;;;;;;6213241;23;20099;-78
2023/08/29 01:11:33;;;;;;;42.03;39.22;;;11.30;99.90;;;;;;6239031;23;20244;-78
2023/08/29 01:14:14;;;;;;;40.60;37.85;;;11.30;99.90;;;;;;6239078;23;20012;-78
2023/08/29 01:17:04;;;;;;;41.53;38.80;;;11.30;99.90;;;;;;6238448;23;20012;-78
2023/08/29 01:19:32;;;;;;;40.13;37.55;;;11.30;99.90;;;;;;6238911;23;20023;-78
2023/08/29 01:22:27;;;;;;;46.72;43.22;;;11.20;99.90;;;;;;6239071;23;20054;-78
2023/08/29 01:25:25;;;;;;;44.50;41.70;;;11.20;99.90;;;;;;6213742;23;20058;-78
2023/08/29 01:27:51;;;;;;;41.78;39.15;;;11.20;99.90;;;;;;6238870;23;20324;-78
2023/08/29 01:30:17;;;;;;;42.67;39.88;;;11.20;99.90;;;;;;6212760;23;20455;-78
2023/08/29 01:32:44;;;;;;;46.90;43.95;;;11.10;99.90;;;;;;6238700;23;20014;-78
2023/08/29 01:35:15;;;;;;;42.55;39.63;;;11.30;99.90;;;;;;6238611;23;20008;-78
2023/08/29 01:37:41;;;;;;;42.60;39.92;;;11.30;99.90;;;;;;6241956;22;20008;-78
2023/08/29 01:40:07;;;;;;;41.70;38.92;;;11.00;99.90;;;;;;6215406;23;20050;-78
2023/08/29 01:42:33;;;;;;;43.97;40.92;;;11.00;99.90;;;;;;6215625;23;20016;-79
2023/08/29 01:44:59;;;;;;;38.42;35.92;;;11.00;99.90;;;;;;6240124;23;20039;-78
2023/08/29 01:47:24;;;;;;;43.80;41.03;;;11.00;99.90;;;;;;6215333;23;20016;-78
2023/08/29 01:49:51;;;;;;;40.13;37.63;;;11.00;99.90;;;;;;6241060;23;20012;-78
2023/08/29 01:52:17;;;;;;;43.40;40.78;;;11.00;99.90;;;;;;6240731;23;20079;-78
2023/08/29 01:54:43;;;;;;;44.33;41.60;;;11.00;99.90;;;;;;6240436;23;20032;-78
2023/08/29 01:57:11;;;;;;;49.50;46.50;;;10.80;99.90;;;;;;6215576;23;20036;-78
2023/08/29 01:59:37;;;;;;;48.03;44.55;;;11.00;99.90;;;;;;6240239;23;20039;-78
2023/08/29 02:02:03;;;;;;;51.30;48.13;;;10.90;99.90;;;;;;6240917;23;20445;-78
2023/08/29 02:04:29;;;;;;;47.38;44.20;;;10.90;99.90;;;;;;6240609;23;20042;-79
2023/08/29 02:06:55;;;;;;;48.33;45.35;;;11.00;99.90;;;;;;6240613;23;20004;-78
2023/08/29 02:09:20;;;;;;;50.03;46.97;;;10.80;99.90;;;;;;6215373;23;20087;-78
2023/08/29 02:11:46;;;;;;;50.13;46.95;;;10.80;99.90;;;;;;6215141;23;20435;-78
2023/08/29 02:14:12;;;;;;;50.33;47.15;;;10.90;99.90;;;;;;6240191;23;20004;-78
2023/08/29 02:16:38;;;;;;;46.35;42.92;;;10.80;99.90;;;;;;6215399;23;20386;-78
2023/08/29 02:19:07;;;;;;;47.65;44.80;;;10.90;99.90;;;;;;6242500;22;20012;-78
2023/08/29 02:21:32;;;;;;;48.92;45.97;;;10.80;99.90;;;;;;6215232;23;20016;-78
2023/08/29 02:24:01;;;;;;;50.50;47.17;;;11.00;99.90;;;;;;6240424;23;20004;-78
2023/08/29 02:26:26;;;;;;;49.63;46.25;;;10.80;99.90;;;;;;6242151;22;20004;-78
2023/08/29 02:28:55;;;;;;;46.65;43.65;;;10.90;99.90;;;;;;6214761;23;20090;-78
2023/08/29 02:31:22;;;;;;;48.60;45.63;;;10.80;99.90;;;;;;6214913;23;20331;-78
2023/08/29 02:33:47;;;;;;;58.53;54.80;;;10.80;99.90;;;;;;6215110;23;20008;-78
2023/08/29 02:36:13;;;;;;;48.33;45.53;;;10.80;99.90;;;;;;6215011;23;20065;-78
2023/08/29 02:38:39;;;;;;;53.00;49.53;;;10.70;99.90;;;;;;6242324;22;20088;-79
2023/08/29 02:41:11;;;;;;;54.90;51.65;;;10.70;99.90;;;;;;6240338;23;20027;-79
2023/08/29 02:43:37;;;;;;;51.85;48.65;;;10.70;99.90;;;;;;6214971;23;20027;-78
2023/08/29 02:46:03;;;;;;;49.75;46.63;;;10.60;99.90;;;;;;6240451;23;20012;-78
2023/08/29 02:48:29;;;;;;;51.97;48.65;;;10.80;99.90;;;;;;6241741;23;20012;-78
2023/08/29 02:50:55;;;;;;;52.67;49.60;;;10.60;99.90;;;;;;6241661;23;20434;-78
2023/08/29 02:53:21;;;;;;;54.28;50.92;;;10.50;99.90;;;;;;6242143;22;20084;-79
2023/08/29 02:55:50;;;;;;;49.10;46.00;;;10.50;99.90;;;;;;6240024;23;20051;-78
2023/08/29 02:58:15;;;;;;;50.50;47.55;;;10.50;99.90;;;;;;6241908;22;20019;-79
2023/08/29 03:00:41;;;;;;;54.00;50.78;;;10.50;99.90;;;;;;6240386;23;20016;-78
2023/08/29 03:03:08;;;;;;;51.75;48.65;;;10.50;99.90;;;;;;6242040;22;20012;-78
2023/08/29 03:05:33;;;;;;;54.47;51.17;;;10.90;99.90;;;;;;6240082;23;20020;-78
2023/08/29 03:08:00;;;;;;;50.22;47.28;;;10.40;99.90;;;;;;6214728;23;20107;-78
2023/08/29 03:10:25;;;;;;;48.13;45.15;;;10.40;99.90;;;;;;6213852;23;20058;-78
2023/08/29 03:12:51;;;;;;;47.92;44.78;;;10.40;99.90;;;;;;6240149;23;20012;-78
2023/08/29 03:15:18;;;;;;;47.25;44.30;;;10.40;99.90;;;;;;6239927;23;20142;-79
2023/08/29 03:17:44;;;;;;;53.70;50.45;;;10.40;99.90;;;;;;6214749;23;20022;-78
2023/08/29 03:20:10;;;;;;;52.63;49.50;;;10.40;99.90;;;;;;6214651;23;20451;-78
2023/08/29 03:22:36;;;;;;;53.10;49.90;;;10.30;99.90;;;;;;6239952;23;20047;-78
2023/08/29 03:25:02;;;;;;;51.65;48.40;;;10.30;99.90;;;;;;6239707;23;20019;-78
2023/08/29 03:27:28;;;;;;;53.08;49.97;;;10.30;99.90;;;;;;6214482;23;20346;-79
2023/08/29 03:29:54;;;;;;;56.83;53.20;;;10.30;99.90;;;;;;6214646;23;20016;-79
2023/08/29 03:32:20;;;;;;;49.83;46.78;;;10.20;99.90;;;;;;6239816;23;20439;-78
2023/08/29 03:34:45;;;;;;;51.55;48.25;;;10.20;99.90;;;;;;6239823;23;20470;-78
2023/08/29 03:37:11;;;;;;;45.92;43.03;;;10.30;99.90;;;;;;6214623;23;20004;-78
2023/08/29 03:39:37;;;;;;;51.95;48.60;;;10.20;99.90;;;;;;6213668;23;20042;-78
2023/08/29 03:42:03;;;;;;;49.50;46.25;;;10.30;99.90;;;;;;6241236;23;20027;-79
2023/08/29 03:44:28;;;;;;;55.00;51.20;;;10.20;99.90;;;;;;6241665;23;20103;-78
2023/08/29 03:46:54;;;;;;;49.88;46.63;;;10.20;99.90;;;;;;6241763;23;20012;-78
2023/08/29 03:49:19;;;;;;;54.67;51.33;;;10.20;99.90;;;;;;6239928;23;20211;-78
2023/08/29 03:51:45;;;;;;;57.53;53.97;;;10.10;99.90;;;;;;6239815;23;20008;-78
2023/08/29 03:54:11;;;;;;;54.50;51.25;;;10.10;99.90;;;;;;6213741;23;20012;-78
2023/08/29 03:56:36;;;;;;;56.58;52.95;;;10.10;99.90;;;;;;6214588;23;20008;-78
2023/08/29 03:59:04;;;;;;;47.00;44.00;;;10.10;99.90;;;;;;6241580;23;20062;-78
2023/08/29 04:01:29;;;;;;;53.42;49.90;;;10.10;99.90;;;;;;6242887;23;20095;-79
2023/08/29 04:03:55;;;;;;;49.00;45.40;;;10.10;99.90;;;;;;6239581;23;20047;-78
2023/08/29 04:06:21;;;;;;;53.65;50.00;;;10.10;99.90;;;;;;6241082;22;20008;-78
2023/08/29 04:08:47;;;;;;;52.40;49.05;;;10.30;99.90;;;;;;6238909;23;20008;-78
2023/08/29 04:11:12;;;;;;;53.47;50.17;;;10.00;99.90;;;;;;6239660;23;20009;-78
2023/08/29 04:13:38;;;;;;;53.15;49.92;;;10.00;99.90;;;;;;6239314;23;20012;-78
2023/08/29 04:16:04;;;;;;;49.42;46.15;;;10.10;99.90;;;;;;6239565;23;20442;-78
2023/08/29 04:18:31;;;;;;;50.28;47.08;;;10.10;99.90;;;;;;6239288;23;20058;-78
2023/08/29 04:20:57;;;;;;;45.38;42.30;;;10.10;99.90;;;;;;6214070;23;20016;-78
2023/08/29 04:23:22;;;;;;;53.25;49.72;;;10.10;99.90;;;;;;6239009;23;20023;-78
2023/08/29 04:25:48;;;;;;;44.50;41.10;;;10.20;99.90;;;;;;6239181;23;20054;-78
2023/08/29 04:28:19;;;;;;;47.28;44.10;;;10.10;99.90;;;;;;6239329;23;20018;-78
2023/08/29 04:30:45;;;;;;;46.15;43.05;;;10.10;99.90;;;;;;6239119;23;20096;-78
2023/08/29 04:33:11;;;;;;;48.65;45.65;;;10.10;99.90;;;;;;6214040;23;20040;-78
2023/08/29 04:35:37;;;;;;;54.03;50.75;;;10.10;99.90;;;;;;6238972;23;20463;-78
2023/08/29 04:38:03;;;;;;;50.70;47.60;;;10.10;99.90;;;;;;6213366;23;20012;-78
2023/08/29 04:40:29;;;;;;;49.00;45.58;;;10.00;99.90;;;;;;6214137;23;20283;-79
2023/08/29 04:42:54;;;;;;;57.33;53.80;;;10.00;99.90;;;;;;6213799;23;20047;-79
2023/08/29 04:45:20;;;;;;;52.50;49.08;;;10.00;99.90;;;;;;6213973;23;20012;-78
2023/08/29 04:47:46;;;;;;;50.15;47.03;;;10.00;99.90;;;;;;6239314;23;20008;-78
2023/08/29 04:50:12;;;;;;;56.08;52.28;;;9.90;99.90;;;;;;6213520;23;20058;-78
2023/08/29 04:52:37;;;;;;;54.10;50.67;;;9.90;99.90;;;;;;6238945;23;20046;-78
2023/08/29 04:55:05;;;;;;;43.33;40.38;;;9.90;99.90;;;;;;6239203;23;20016;-78
2023/08/29 04:57:33;;;;;;;52.97;49.67;;;9.90;99.90;;;;;;6240797;22;20008;-78
2023/08/29 05:00:00;;;;;;;55.05;51.63;;;9.90;99.90;;;;;;6239545;23;20070;-78
2023/08/29 05:02:26;;;;;;;54.10;50.92;;;9.90;99.90;;;;;;6238789;23;20039;-78
2023/08/29 05:04:52;;;;;;;57.42;53.80;;;9.90;99.90;;;;;;6238844;23;20016;-78
2023/08/29 05:07:18;;;;;;;49.40;46.08;;;9.90;99.90;;;;;;6238675;23;20355;-78
2023/08/29 05:09:44;;;;;;;55.40;52.10;;;9.90;99.90;;;;;;6213370;23;20012;-78
2023/08/29 05:12:10;;;;;;;47.60;44.28;;;9.90;99.90;;;;;;6239205;23;20327;-78
2023/08/29 05:14:39;;;;;;;56.55;52.88;;;9.90;99.90;;;;;;6213544;23;20088;-78
2023/08/29 05:17:05;;;;;;;49.03;45.97;;;9.90;99.90;;;;;;6238930;23;20039;-78
2023/08/29 05:19:31;;;;;;;47.40;43.97;;;10.00;99.90;;;;;;6240496;23;20012;-78
2023/08/29 05:21:57;;;;;;;48.10;45.00;;;10.00;99.90;;;;;;6213254;23;20061;-78
2023/08/29 05:24:22;;;;;;;40.55;37.70;;;10.10;99.90;;;;;;6213656;23;20016;-78
2023/08/29 05:26:49;;;;;;;49.50;46.03;;;10.10;99.90;;;;;;6238978;23;20015;-78
2023/08/29 05:29:14;;;;;;;48.70;45.42;;;10.20;99.90;;;;;;6213325;23;20091;-78
2023/08/29 05:31:40;;;;;;;48.47;45.22;;;10.20;99.90;;;;;;6213994;23;20054;-79
2023/08/29 05:34:06;;;;;;;49.22;46.15;;;10.30;99.90;;;;;;6213571;23;20042;-79
2023/08/29 05:36:31;;;;;;;44.85;41.70;;;10.00;99.90;;;;;;6238181;23;20044;-79
2023/08/29 05:38:57;;;;;;;49.88;46.75;;;10.30;99.90;;;;;;6238838;23;20018;-79
2023/08/29 05:41:22;;;;;;;46.75;43.65;;;10.30;99.90;;;;;;6240327;23;20023;-79
2023/08/29 05:43:48;;;;;;;50.85;47.67;;;10.40;99.90;;;;;;6239111;23;20016;-79
2023/08/29 05:46:14;;;;;;;43.60;40.60;;;10.40;99.90;;;;;;6238775;23;20593;-79
2023/08/29 05:48:40;;;;;;;42.13;39.28;;;10.40;99.90;;;;;;6238835;23;20030;-77
2023/08/29 05:51:05;;;;;;;42.30;39.45;;;10.50;99.90;;;;;;6212897;23;20008;-78
2023/08/29 05:53:31;;;;;;;43.25;40.35;;;10.60;99.90;;;;;;6240772;23;20008;-78
2023/08/29 05:55:56;;;;;;;39.03;36.00;;;10.60;99.90;;;;;;6213730;23;20023;-78
2023/08/29 05:58:22;;;;;;;39.95;36.90;;;10.70;99.90;;;;;;6240851;22;20478;-78
2023/08/29 06:00:48;;;;;;;39.65;36.95;;;10.80;99.90;;;;;;6240659;23;20506;-78
2023/08/29 06:03:14;;;;;;;39.45;36.22;;;10.90;99.90;;;;;;6238825;23;20016;-78
2023/08/29 06:05:43;;;;;;;33.83;31.25;;;11.30;99.90;;;;;;6212665;23;20019;-78
2023/08/29 06:08:08;;;;;;;28.63;26.38;;;11.90;99.90;;;;;;6239270;23;20008;-78
2023/08/29 06:10:34;;;;;;;31.42;28.63;;;12.30;99.90;;;;;;6238725;23;20020;-79
2023/08/29 06:13:00;;;;;;;27.17;25.05;;;12.80;99.90;;;;;;6240713;23;20047;-78
2023/08/29 06:15:26;;;;;;;21.40;19.83;;;13.30;99.90;;;;;;6238915;23;20038;-78
2023/08/29 06:17:51;;;;;;;21.98;20.42;;;13.80;99.90;;;;;;6240557;23;20008;-78
2023/08/29 06:20:17;;;;;;;17.70;16.33;;;14.30;99.90;;;;;;6238441;23;20024;-78
2023/08/29 06:22:43;;;;;;;16.08;14.98;;;15.20;99.90;;;;;;6239010;23;20038;-79
2023/08/29 06:25:09;;;;;;;11.05;10.15;;;16.30;99.90;;;;;;6240611;23;20012;-78
2023/08/29 06:27:38;;;;;;;9.25;8.45;;;17.30;99.90;;;;;;6240494;23;20020;-79
2023/08/29 06:30:07;;;;;;;12.00;11.10;;;18.10;99.90;;;;;;6240480;23;20055;-79
2023/08/29 06:32:35;;;;;;;12.27;11.40;;;18.90;99.90;;;;;;6240399;23;20012;-79
2023/08/29 06:35:01;;;;;;;13.63;12.27;;;19.50;99.90;;;;;;6239756;23;20083;-79
2023/08/29 06:37:27;;;;;;;16.90;15.60;;;20.20;99.90;;;;;;6242213;23;20458;-80
2023/08/29 06:39:52;;;;;;;10.00;9.27;;;20.70;99.90;;;;;;6215126;23;20035;-79
2023/08/29 06:42:18;;;;;;;8.38;7.68;;;21.20;99.90;;;;;;6240276;23;20012;-79
2023/08/29 06:44:44;;;;;;;9.77;8.88;;;21.70;99.90;;;;;;6215136;23;20050;-79
2023/08/29 06:47:09;;;;;;;7.05;6.50;;;21.80;99.90;;;;;;6240512;23;20016;-79
2023/08/29 06:49:35;;;;;;;8.82;8.13;;;21.50;99.90;;;;;;6214420;23;20026;-79
2023/08/29 06:52:01;;;;;;;13.13;12.27;;;20.70;99.90;;;;;;6242329;22;20008;-79
2023/08/29 06:54:28;;;;;;;12.75;11.27;;;20.10;99.90;;;;;;6214753;23;20099;-79
2023/08/29 06:56:54;;;;;;;12.45;11.45;;;19.60;99.90;;;;;;6240357;23;20020;-78
2023/08/29 06:59:19;;;;;;;12.07;11.07;;;19.10;99.90;;;;;;6240723;23;20019;-79
2023/08/29 07:01:45;;;;;;;12.38;11.32;;;18.80;99.90;;;;;;6242157;23;20043;-79
2023/08/29 07:04:11;;;;;;;14.25;13.07;;;18.60;99.90;;;;;;6214257;23;20016;-79
2023/08/29 07:06:37;;;;;;;15.13;14.07;;;18.40;99.90;;;;;;6239963;23;20473;-79
2023/08/29 07:09:03;;;;;;;15.38;14.27;;;18.30;99.90;;;;;;6239653;23;20014;-79
2023/08/29 07:11:29;;;;;;;16.92;15.68;;;18.10;99.90;;;;;;6239218;23;20019;-79
2023/08/29 07:13:55;;;;;;;15.18;13.88;;;18.10;99.90;;;;;;6239072;23;20008;-79
2023/08/29 07:16:21;;;;;;;15.35;14.35;;;18.10;99.90;;;;;;6238512;23;20008;-79
2023/08/29 07:18:46;;;;;;;16.45;15.35;;;18.20;99.90;;;;;;6212837;23;20016;-79
2023/08/29 07:21:12;;;;;;;16.77;15.57;;;18.20;99.90;;;;;;6213542;23;20082;-79
2023/08/29 07:23:38;;;;;;;17.05;15.95;;;18.20;99.90;;;;;;6238967;23;20051;-79
2023/08/29 07:26:03;;;;;;;19.17;17.67;;;18.30;99.90;;;;;;6214580;23;20027;-78
2023/08/29 07:28:29;;;;;;;21.35;19.92;;;18.30;99.90;;;;;;6239785;23;20020;-79
2023/08/29 07:30:55;;;;;;;18.30;17.05;;;18.40;99.90;;;;;;6241853;23;20039;-79
2023/08/29 07:33:21;;;;;;;18.58;17.45;;;18.50;99.90;;;;;;6239458;23;20053;-79
2023/08/29 07:35:48;;;;;;;17.65;16.35;;;18.50;99.90;;;;;;6214443;23;20138;-79
2023/08/29 07:38:14;;;;;;;19.15;17.67;;;18.50;99.90;;;;;;6240130;23;20091;-79
2023/08/29 07:40:39;;;;;;;18.25;17.08;;;18.60;99.90;;;;;;6241443;22;20016;-79
2023/08/29 07:43:09;;;;;;;19.08;17.88;;;18.70;99.90;;;;;;6239628;23;20078;-79
2023/08/29 07:45:35;;;;;;;18.25;16.85;;;18.60;99.90;;;;;;6240021;23;20062;-79
2023/08/29 07:48:01;;;;;;;18.08;16.73;;;18.60;99.90;;;;;;6214129;23;20083;-78
2023/08/29 07:50:28;;;;;;;20.13;18.73;;;18.60;99.90;;;;;;6214441;23;20118;-79
2023/08/29 07:52:54;;;;;;;22.65;20.85;;;18.60;99.90;;;;;;6239549;23;20346;-79
2023/08/29 07:55:20;;;;;;;18.75;17.55;;;18.60;99.90;;;;;;6241496;23;20058;-79
2023/08/29 07:57:47;;;;;;;18.63;17.52;;;18.60;99.90;;;;;;6214272;23;20019;-79
2023/08/29 08:00:14;;;;;;;20.52;18.80;;;18.70;99.90;;;;;;6239566;23;20023;-79
2023/08/29 08:02:40;;;;;;;15.75;14.75;;;18.80;99.90;;;;;;6238865;23;20019;-79
2023/08/29 08:05:13;;;;;;;19.27;17.92;;;18.80;99.90;;;;;;6239621;23;20016;-79
2023/08/29 08:07:40;;;;;;;17.27;16.13;;;18.80;99.90;;;;;;6239599;23;20012;-79
2023/08/29 08:10:07;;;;;;;16.25;15.15;;;18.90;99.90;;;;;;6239639;23;20020;-79
2023/08/29 08:12:34;;;;;;;19.30;18.15;;;18.90;99.90;;;;;;6214224;23;20004;-79
2023/08/29 08:15:00;;;;;;;17.25;16.15;;;18.90;99.90;;;;;;6239086;23;20012;-79
2023/08/29 08:17:26;;;;;;;23.10;21.70;;;18.90;99.90;;;;;;6214061;23;20067;-79
2023/08/29 08:19:52;;;;;;;14.80;13.80;;;18.80;99.90;;;;;;6239417;23;20477;-79
2023/08/29 08:22:17;;;;;;;19.15;17.85;;;18.90;99.90;;;;;;6239389;23;20016;-79
2023/08/29 08:24:43;;;;;;;21.60;20.33;;;18.90;99.90;;;;;;6213726;23;20016;-79
2023/08/29 08:27:09;;;;;;;19.48;18.20;;;19.20;99.90;;;;;;6213666;23;20283;-79
2023/08/29 08:29:35;;;;;;;19.77;18.65;;;19.50;99.90;;;;;;6239068;23;20024;-79
2023/08/29 08:32:00;;;;;;;21.80;20.50;;;19.70;99.90;;;;;;6239056;23;20043;-79
2023/08/29 08:34:26;;;;;;;23.70;22.25;;;19.90;99.90;;;;;;6239508;23;20438;-79
2023/08/29 08:36:52;;;;;;;13.93;13.07;;;20.10;99.90;;;;;;6239028;23;20070;-79
2023/08/29 08:39:18;;;;;;;11.60;10.75;;;20.00;99.90;;;;;;6239081;23;20074;-79
2023/08/29 08:41:43;;;;;;;13.23;12.32;;;19.80;99.90;;;;;;6240695;22;20012;-79
2023/08/29 08:44:13;;;;;;;13.30;12.48;;;19.90;99.90;;;;;;6238653;23;20413;-79
2023/08/29 08:46:39;;;;;;;13.38;12.48;;;20.00;99.90;;;;;;6213827;23;20199;-79
2023/08/29 08:49:06;;;;;;;16.60;15.48;;;20.20;99.90;;;;;;6238580;23;20062;-79
2023/08/29 08:51:32;;;;;;;17.42;16.13;;;20.30;99.90;;;;;;6238775;23;20012;-79
2023/08/29 08:53:59;;;;;;;23.25;21.85;;;20.60;99.90;;;;;;6238913;23;20509;-79
2023/08/29 08:56:25;;;;;;;28.55;26.92;;;21.00;99.90;;;;;;6213607;23;20010;-79
2023/08/29 08:58:50;;;;;;;30.08;28.10;;;21.40;99.90;;;;;;6238527;23;20083;-79
2023/08/29 09:01:16;;;;;;;21.23;19.83;;;21.80;99.90;;;;;;6240690;23;20058;-79
2023/08/29 09:03:42;;;;;;;169.90;156.13;;;22.10;99.90;;;;;;6238694;23;20012;-78
2023/08/29 09:06:09;;;;;;;146.57;134.77;;;22.40;99.90;;;;;;6239013;23;20018;-79
2023/08/29 09:08:36;;;;;;;262.00;233.05;;;22.40;99.90;;;;;;6238420;23;20069;-78
2023/08/29 09:11:03;;;;;;;536.78;481.38;;;23.00;99.90;;;;;;6213747;23;20474;-79
2023/08/29 09:13:29;;;;;;;676.17;606.60;;;23.50;99.90;;;;;;6238451;23;20058;-79
2023/08/29 09:15:57;;;;;;;1160.57;831.17;;;24.00;99.90;;;;;;6240708;22;20019;-79
2023/08/29 09:18:31;;;;;;;1999.90;999.90;;;24.30;99.90;;;;;;6240659;22;20039;-79
2023/08/29 09:21:02;;;;;;;1607.53;906.90;;;24.50;99.90;;;;;;6213498;23;20044;-79
2023/08/29 09:23:30;;;;;;;1999.90;970.75;;;23.80;99.90;;;;;;6238820;23;20012;-79
2023/08/29 09:25:58;;;;;;;1999.90;977.88;;;23.70;99.90;;;;;;6240687;22;20399;-79
2023/08/29 09:28:31;;;;;;;1999.90;870.03;;;23.70;99.90;;;;;;6213107;23;20549;-79
2023/08/29 09:31:08;;;;;;;1999.90;985.78;;;24.30;99.90;;;;;;6238852;23;20482;-79
2023/08/29 09:33:35;;;;;;;1999.90;999.90;;;24.40;99.90;;;;;;6238492;23;20043;-78
2023/08/29 09:36:02;;;;;;;1999.90;863.95;;;23.60;99.90;;;;;;6238775;23;20032;-79
2023/08/29 09:38:31;;;;;;;1442.55;327.05;;;23.20;99.90;;;;;;6239176;23;20071;-79
2023/08/29 09:40:57;;;;;;;1999.90;552.05;;;22.70;99.90;;;;;;6238719;23;20008;-79
2023/08/29 09:43:23;;;;;;;1999.90;585.60;;;22.50;99.90;;;;;;6238124;23;20069;-79
2023/08/29 09:45:50;;;;;;;1955.07;443.90;;;22.10;99.90;;;;;;6240193;23;20016;-79
2023/08/29 09:48:16;;;;;;;1999.90;731.25;;;21.80;99.90;;;;;;6238643;23;20027;-79
2023/08/29 09:50:43;;;;;;;1999.90;823.25;;;21.50;99.90;;;;;;6238739;23;20334;-78
2023/08/29 09:53:09;;;;;;;1999.90;868.92;;;21.20;99.90;;;;;;6213359;23;20004;-79
2023/08/29 09:55:58;;;;;;;1999.90;998.00;;;20.90;99.90;;;;;;6240702;22;20016;-79
2023/08/29 09:58:27;;;;;;;1357.25;687.17;;;20.80;99.90;;;;;;6212778;23;20016;-78
2023/08/29 10:00:53;;;;;;;1044.88;455.30;;;20.60;99.90;;;;;;6242521;22;20075;-79
2023/08/29 10:03:20;;;;;;;1999.90;959.97;;;20.50;99.90;;;;;;6242523;22;20012;-79
2023/08/29 10:05:45;;;;;;;1999.90;986.13;;;20.30;99.90;;;;;;6215726;23;20555;-79
2023/08/29 10:08:11;;;;;;;1943.88;848.90;;;20.10;99.90;;;;;;6215553;23;20016;-79
2023/08/29 10:10:40;;;;;;;1953.32;877.85;;;20.20;99.90;;;;;;6215183;23;20443;-79
2023/08/29 10:13:08;;;;;;;702.38;345.92;;;20.20;99.90;;;;;;6239845;23;20488;-79
2023/08/29 10:15:34;;;;;;;713.92;358.45;;;20.20;99.90;;;;;;6240675;23;20019;-79
2023/08/29 10:18:01;;;;;;;891.03;635.90;;;20.40;99.90;;;;;;6215396;23;20337;-79
2023/08/29 10:20:27;;;;;;;757.55;395.42;;;20.50;99.90;;;;;;6215428;23;20461;-79
2023/08/29 10:22:53;;;;;;;1999.90;999.90;;;20.70;99.90;;;;;;6240625;23;20079;-78
2023/08/29 10:25:21;;;;;;;1999.90;846.95;;;20.90;99.90;;;;;;6242515;22;20038;-78
2023/08/29 10:27:49;;;;;;;1999.90;833.72;;;21.00;99.90;;;;;;6242540;22;20040;-79
2023/08/29 10:30:15;;;;;;;1999.90;999.90;;;21.20;99.90;;;;;;6214982;23;20008;-79
2023/08/29 10:32:43;;;;;;;1999.90;645.25;;;21.20;99.90;;;;;;6242403;22;20008;-79
2023/08/29 10:35:20;;;;;;;1999.90;999.90;;;21.40;99.90;;;;;;6240387;23;20043;-78
2023/08/29 10:37:52;;;;;;;1999.90;999.90;;;21.30;99.90;;;;;;6215032;23;20004;-79
2023/08/29 10:40:19;;;;;;;1999.90;531.25;;;21.30;99.90;;;;;;6239677;23;20069;-78
2023/08/29 10:42:59;;;;;;;1999.90;999.90;;;21.40;99.90;;;;;;6240047;23;20179;-79
2023/08/29 10:45:56;;;;;;;1999.90;999.90;;;21.50;99.90;;;;;;6240545;23;20016;-79
2023/08/29 10:48:45;;;;;;;1999.90;758.88;;;21.40;99.90;;;;;;6214859;23;20167;-78
2023/08/29 10:51:11;;;;;;;1533.15;312.90;;;21.30;99.90;;;;;;6217167;23;20082;-79
2023/08/29 10:53:47;;;;;;;1999.90;999.90;;;21.30;99.90;;;;;;6241647;22;20019;-79
2023/08/29 10:56:13;;;;;;;1999.90;999.90;;;21.30;99.90;;;;;;6241237;22;20020;-79
2023/08/29 10:58:41;;;;;;;1999.90;831.10;;;21.40;99.90;;;;;;6240006;23;20008;-79
2023/08/29 11:01:26;;;;;;;1999.90;661.55;;;21.50;99.90;;;;;;6214890;23;20087;-79
2023/08/29 11:03:53;;;;;;;1999.90;703.55;;;21.50;99.90;;;;;;6240056;23;20012;-79
2023/08/29 11:06:23;;;;;;;1999.90;999.90;;;21.70;99.90;;;;;;6240425;23;20016;-79
2023/08/29 11:08:50;;;;;;;1999.90;999.90;;;21.80;99.90;;;;;;6239698;23;20087;-79
2023/08/29 11:11:19;;;;;;;1999.90;999.90;;;21.70;99.90;;;;;;6241688;22;20012;-79
2023/08/29 11:13:56;;;;;;;1999.90;593.65;;;21.70;99.90;;;;;;6240118;23;20015;-79
2023/08/29 11:16:22;;;;;;;1999.90;999.90;;;21.80;99.90;;;;;;6241675;23;20035;-79
2023/08/29 11:19:04;;;;;;;1999.90;999.90;;;21.80;99.90;;;;;;6240264;23;20012;-78
2023/08/29 11:21:30;;;;;;;1999.90;999.90;;;21.60;99.90;;;;;;6239909;23;20014;-79
2023/08/29 11:23:58;;;;;;;1543.70;218.52;;;21.70;99.90;;;;;;6239612;23;20012;-79
2023/08/29 11:26:24;;;;;;;1999.90;999.90;;;21.90;99.90;;;;;;6241404;22;20016;-79
2023/08/29 11:28:50;;;;;;;1999.90;999.90;;;21.70;99.90;;;;;;6240094;23;20008;-79
2023/08/29 11:31:20;;;;;;;1970.40;371.92;;;21.60;99.90;;;;;;6241829;22;20339;-78
2023/08/29 11:33:49;;;;;;;1999.90;850.88;;;21.70;99.90;;;;;;6214735;23;20087;-79
2023/08/29 11:36:15;;;;;;;1999.90;999.90;;;22.10;99.90;;;;;;6239799;23;20012;-79
2023/08/29 11:38:42;;;;;;;1999.90;999.90;;;22.20;99.90;;;;;;6239355;23;20008;-79
2023/08/29 11:41:08;;;;;;;1999.90;999.90;;;22.20;99.90;;;;;;6240223;23;20015;-79
2023/08/29 11:43:34;;;;;;;1999.90;999.90;;;22.20;99.90;;;;;;6239657;23;20016;-79
2023/08/29 11:46:06;;;;;;;1810.10;814.10;;;22.20;99.90;;;;;;6240014;23;20471;-79
2023/08/29 11:48:32;;;;;;;1999.90;999.90;;;22.10;99.90;;;;;;6239680;23;20435;-79
2023/08/29 11:51:07;;;;;;;1999.90;999.90;;;22.00;99.90;;;;;;6214323;23;20043;-79
2023/08/29 11:53:34;;;;;;;1104.00;267.75;;;22.00;99.90;;;;;;6239115;23;20048;-79
2023/08/29 11:56:03;;;;;;;1999.90;999.90;;;22.00;99.90;;;;;;6241463;22;20008;-79
2023/08/29 11:58:36;;;;;;;1697.70;773.42;;;22.00;99.90;;;;;;6214628;23;20016;-79
2023/08/29 12:01:04;;;;;;;1999.90;553.13;;;22.10;99.90;;;;;;6214364;23;20085;-79
2023/08/29 12:03:33;;;;;;;1999.90;669.47;;;22.20;99.90;;;;;;6241432;22;20015;-79
2023/08/29 12:05:59;;;;;;;1999.90;999.90;;;22.30;99.90;;;;;;6214187;23;20049;-79
2023/08/29 12:08:42;;;;;;;1999.90;999.90;;;22.20;99.90;;;;;;6238800;23;20047;-79
2023/08/29 12:11:08;;;;;;;1999.90;999.90;;;22.10;99.90;;;;;;6239586;23;20062;-79
2023/08/29 12:13:36;;;;;;;1999.90;949.83;;;22.10;99.90;;;;;;6241263;22;20266;-79
2023/08/29 12:16:03;;;;;;;1681.63;383.67;;;22.20;99.90;;;;;;6214412;23;20384;-79
2023/08/29 12:18:29;;;;;;;1999.90;669.53;;;22.30;99.90;;;;;;6239502;23;20008;-79
2023/08/29 12:21:18;;;;;;;1999.90;863.17;;;22.30;99.90;;;;;;6238869;23;20553;-79